createdAt,value
2023-03-21T00:00:48.822Z,9.5
2023-03-21T00:02:51.058Z,9.4
2023-03-21T00:04:55.079Z,9.4
2023-03-21T00:06:55.183Z,9.5
2023-03-21T00:09:00.545Z,9.4
2023-03-21T00:11:02.683Z,9.5
2023-03-21T00:15:06.878Z,9.5
2023-03-21T00:17:09.042Z,9.5
2023-03-21T00:19:11.180Z,9.5
2023-03-21T00:23:18.679Z,9.5
2023-03-21T00:31:27.142Z,9.5
2023-03-21T00:33:29.223Z,9.4
2023-03-21T00:35:54.007Z,9.4
2023-03-21T00:37:36.631Z,9.4
2023-03-21T00:39:38.771Z,9.4
2023-03-21T00:41:43.253Z,9.4
2023-03-21T00:42:43.455Z,9.4
2023-03-21T00:44:45.567Z,9.4
2023-03-21T00:47:00.883Z,9.4
2023-03-21T00:48:49.813Z,9.3
2023-03-21T00:50:55.176Z,9.3
2023-03-21T00:52:57.311Z,9.4
2023-03-21T00:54:59.434Z,9.3
2023-03-21T00:57:01.576Z,9.3
2023-03-21T01:03:21.414Z,9.4
2023-03-21T01:09:17.321Z,9.3
2023-03-21T01:11:19.429Z,9.3
2023-03-21T01:13:21.549Z,9.2
2023-03-21T01:15:23.669Z,9.2
2023-03-21T01:19:48.331Z,9.1
2023-03-21T01:21:33.265Z,9.2
2023-03-21T01:27:39.622Z,9.3
2023-03-21T01:29:41.728Z,9.2
2023-03-21T01:31:43.864Z,9.3
2023-03-21T01:33:49.205Z,9.3
2023-03-21T01:35:57.578Z,9.3
2023-03-21T01:38:56.132Z,9.3
2023-03-21T01:40:59.387Z,9.2
2023-03-21T01:43:00.354Z,9.2
2023-03-21T01:45:02.489Z,9.3
2023-03-21T01:47:12.529Z,9.3
2023-03-21T01:49:09.972Z,9.3
2023-03-21T01:53:14.243Z,9.2
2023-03-21T02:03:35.717Z,9.2
2023-03-21T02:07:32.219Z,9.1
2023-03-21T02:11:36.450Z,9.3
2023-03-21T02:19:53.326Z,9.2
2023-03-21T02:23:52.266Z,9.3
2023-03-21T02:25:54.394Z,9.2
2023-03-21T02:27:56.496Z,9.3
2023-03-21T02:30:02.741Z,9.2
2023-03-21T02:32:16.452Z,9.2
2023-03-21T02:34:06.980Z,9.2
2023-03-21T02:35:09.645Z,9.2
2023-03-21T02:37:11.750Z,9.2
2023-03-21T02:39:13.878Z,9.3
2023-03-21T02:41:18.971Z,9.3
2023-03-21T02:43:23.859Z,9.2
2023-03-21T02:45:23.494Z,9.2
2023-03-21T02:47:25.615Z,9.3
2023-03-21T02:49:27.769Z,9.2
2023-03-21T02:51:29.837Z,9.2
2023-03-21T02:53:31.958Z,9.2
2023-03-21T02:55:34.086Z,9.2
2023-03-21T02:57:43.188Z,9.2
2023-03-21T02:59:51.606Z,9.2
2023-03-21T03:01:43.686Z,9.2
2023-03-21T03:05:47.927Z,9.2
2023-03-21T03:07:50.030Z,9.2
2023-03-21T03:09:52.176Z,9.2
2023-03-21T03:11:57.393Z,9.2
2023-03-21T03:13:59.520Z,9.2
2023-03-21T03:16:01.729Z,9.3
2023-03-21T03:20:15.610Z,9.2
2023-03-21T03:22:09.585Z,9.2
2023-03-21T03:24:11.664Z,9.2
2023-03-21T03:28:19.133Z,9.2
2023-03-21T03:30:23.686Z,9.2
2023-03-21T03:32:50.024Z,9.1
2023-03-21T03:38:59.605Z,9.2
2023-03-21T03:41:01.721Z,9.2
2023-03-21T03:43:03.844Z,9.2
2023-03-21T03:45:05.964Z,9.2
2023-03-21T03:49:10.213Z,9.2
2023-03-21T03:51:12.330Z,9.2
2023-03-21T03:55:19.825Z,9.2
2023-03-21T03:57:22.658Z,9.2
2023-03-21T03:59:24.062Z,9.2
2023-03-21T04:01:26.206Z,9.1
2023-03-21T04:03:32.420Z,9.2
2023-03-21T04:05:30.416Z,9.2
2023-03-21T04:07:35.772Z,9.2
2023-03-21T04:09:44.451Z,9.2
2023-03-21T04:11:40.034Z,9.1
2023-03-21T04:13:42.153Z,9.1
2023-03-21T04:15:44.280Z,9.2
2023-03-21T04:17:46.725Z,9.2
2023-03-21T04:19:48.506Z,9.1
2023-03-21T04:21:53.758Z,9.2
2023-03-21T04:23:55.885Z,9.1
2023-03-21T04:25:58.013Z,9.2
2023-03-21T04:29:02.831Z,9.2
2023-03-21T04:31:11.076Z,9.2
2023-03-21T04:35:12.444Z,9.1
2023-03-21T04:37:14.552Z,9.2
2023-03-21T04:39:16.677Z,9.2
2023-03-21T04:45:23.031Z,9.1
2023-03-21T04:47:25.166Z,9.1
2023-03-21T04:49:30.520Z,9.1
2023-03-21T04:51:32.633Z,9.1
2023-03-21T04:53:34.744Z,9.1
2023-03-21T04:55:37.206Z,9.1
2023-03-21T04:57:38.965Z,9.1
2023-03-21T04:59:41.137Z,9.1
2023-03-21T05:01:43.235Z,9.1
2023-03-21T05:03:48.644Z,9.1
2023-03-21T05:07:52.818Z,9
2023-03-21T05:09:54.928Z,9.1
2023-03-21T05:11:57.073Z,9
2023-03-21T05:13:59.156Z,9
2023-03-21T05:16:01.281Z,8.9
2023-03-21T05:18:06.666Z,9
2023-03-21T05:20:08.762Z,9
2023-03-21T05:22:10.931Z,8.9
2023-03-21T05:23:13.582Z,9
2023-03-21T05:25:15.702Z,9
2023-03-21T05:27:17.813Z,8.9
2023-03-21T05:29:19.944Z,8.9
2023-03-21T05:31:25.326Z,8.9
2023-03-21T05:33:27.407Z,8.9
2023-03-21T05:35:29.510Z,8.9
2023-03-21T05:39:33.757Z,8.9
2023-03-21T05:41:35.862Z,8.9
2023-03-21T05:43:37.955Z,8.9
2023-03-21T05:45:43.353Z,8.9
2023-03-21T05:47:45.501Z,8.9
2023-03-21T05:49:47.571Z,8.9
2023-03-21T05:51:49.697Z,8.9
2023-03-21T05:53:51.805Z,8.9
2023-03-21T05:55:53.917Z,8.9
2023-03-21T05:57:56.040Z,8.8
2023-03-21T06:00:01.430Z,8.8
2023-03-21T06:02:03.522Z,8.8
2023-03-21T06:04:05.652Z,8.9
2023-03-21T06:08:09.829Z,8.8
2023-03-21T06:10:11.961Z,8.9
2023-03-21T06:12:14.063Z,8.9
2023-03-21T06:14:19.402Z,8.9
2023-03-21T06:16:21.475Z,8.8
2023-03-21T06:18:23.551Z,8.9
2023-03-21T06:19:26.222Z,8.9
2023-03-21T06:21:28.327Z,8.9
2023-03-21T06:23:30.444Z,9
2023-03-21T06:33:44.185Z,9
2023-03-21T06:35:46.379Z,9
2023-03-21T06:37:48.430Z,8.9
2023-03-21T06:39:50.518Z,9
2023-03-21T06:41:55.892Z,9.1
2023-03-21T06:43:57.997Z,9
2023-03-21T06:46:00.105Z,9
2023-03-21T06:50:04.294Z,9
2023-03-21T06:54:08.525Z,9.1
2023-03-21T06:56:13.878Z,9
2023-03-21T06:58:15.998Z,9.1
2023-03-21T07:00:18.081Z,9.1
2023-03-21T07:06:24.433Z,9.1
2023-03-21T07:08:26.550Z,9.1
2023-03-21T07:10:31.918Z,9.2
2023-03-21T07:12:34.046Z,9.1
2023-03-21T07:14:36.131Z,9.2
2023-03-21T07:17:05.028Z,9.2
2023-03-21T07:21:09.222Z,9.3
2023-03-21T07:23:14.616Z,9.3
2023-03-21T07:25:16.757Z,9.3
2023-03-21T07:27:18.845Z,9.3
2023-03-21T07:29:20.936Z,9.2
2023-03-21T07:31:23.067Z,9.3
2023-03-21T07:33:25.176Z,9.4
2023-03-21T07:35:27.266Z,9.4
2023-03-21T07:37:32.627Z,9.4
2023-03-21T07:39:34.728Z,9.5
2023-03-21T07:41:36.877Z,9.5
2023-03-21T07:43:39.419Z,9.5
2023-03-21T07:45:41.525Z,9.5
2023-03-21T07:47:43.228Z,9.6
2023-03-21T07:49:45.303Z,9.7
2023-03-21T07:55:54.786Z,9.7
2023-03-21T07:57:56.904Z,9.8
2023-03-21T08:04:03.261Z,9.8
2023-03-21T08:06:08.653Z,9.8
2023-03-21T08:08:10.758Z,9.9
2023-03-21T08:11:15.443Z,9.8
2023-03-21T08:13:17.580Z,9.8
2023-03-21T08:15:19.693Z,9.8
2023-03-21T08:17:21.851Z,9.8
2023-03-21T08:19:27.206Z,9.7
2023-03-21T08:21:29.182Z,9.7
2023-03-21T08:23:31.319Z,9.8
2023-03-21T08:25:33.438Z,9.7
2023-03-21T08:27:35.542Z,9.8
2023-03-21T08:29:37.688Z,9.7
2023-03-21T08:37:49.243Z,9.7
2023-03-21T08:41:53.459Z,9.9
2023-03-21T08:43:55.589Z,9.8
2023-03-21T08:45:57.729Z,9.8
2023-03-21T08:48:03.004Z,9.9
2023-03-21T08:50:05.122Z,9.9
2023-03-21T08:52:07.235Z,9.9
2023-03-21T08:54:09.381Z,10
2023-03-21T08:58:13.517Z,10.1
2023-03-21T09:00:15.637Z,10.1
2023-03-21T09:04:23.071Z,10.1
2023-03-21T09:06:25.156Z,10.1
2023-03-21T09:07:27.872Z,10.1
2023-03-21T09:09:29.977Z,10.1
2023-03-21T09:13:35.777Z,10.1
2023-03-21T09:17:43.150Z,10.1
2023-03-21T09:19:45.254Z,10.1
2023-03-21T09:21:47.408Z,10.2
2023-03-21T09:25:51.541Z,10.2
2023-03-21T09:27:53.678Z,10.3
2023-03-21T09:29:59.002Z,10.3
2023-03-21T09:34:03.186Z,10.5
2023-03-21T09:42:13.166Z,10.5
2023-03-21T09:46:18.982Z,10.6
2023-03-21T09:48:21.071Z,10.8
2023-03-21T09:50:23.253Z,10.7
2023-03-21T09:52:25.212Z,10.7
2023-03-21T09:54:27.506Z,10.6
2023-03-21T09:58:34.854Z,10.8
2023-03-21T10:00:36.937Z,10.8
2023-03-21T10:02:38.922Z,10.8
2023-03-21T10:03:41.612Z,10.8
2023-03-21T10:05:43.653Z,10.8
2023-03-21T10:07:45.707Z,10.8
2023-03-21T10:09:47.843Z,10.8
2023-03-21T10:11:53.047Z,10.8
2023-03-21T10:13:55.088Z,10.8
2023-03-21T10:15:57.195Z,10.9
2023-03-21T10:17:59.355Z,10.8
2023-03-21T10:20:01.509Z,10.9
2023-03-21T10:22:04.451Z,11
2023-03-21T10:24:05.783Z,11.1
2023-03-21T10:26:14.778Z,11.1
2023-03-21T10:28:13.301Z,11.1
2023-03-21T10:30:15.455Z,11.2
2023-03-21T10:32:17.525Z,11.3
2023-03-21T10:34:19.622Z,11.4
2023-03-21T10:36:21.802Z,11.3
2023-03-21T10:38:23.842Z,11.4
2023-03-21T10:40:29.126Z,11.3
2023-03-21T10:42:31.189Z,11.4
2023-03-21T10:52:41.532Z,11.7
2023-03-21T11:03:21.660Z,11.7
2023-03-21T11:11:33.018Z,12
2023-03-21T11:19:41.259Z,12.6
2023-03-21T11:25:50.586Z,12.4
2023-03-21T11:27:52.633Z,12.3
2023-03-21T11:29:54.682Z,12.5
2023-03-21T11:31:56.766Z,12.6
2023-03-21T11:33:58.790Z,12.9
2023-03-21T11:36:04.074Z,12.7
2023-03-21T11:38:06.094Z,12.6
2023-03-21T11:40:08.138Z,12.4
2023-03-21T11:42:10.186Z,12.4
2023-03-21T11:44:12.276Z,12.4
2023-03-21T11:46:14.484Z,12.3
2023-03-21T11:48:16.468Z,12.1
2023-03-21T11:50:21.570Z,12.2
2023-03-21T11:52:23.636Z,12.1
2023-03-21T11:54:25.695Z,12.2
2023-03-21T11:59:32.441Z,12.4
2023-03-21T12:01:34.469Z,12.5
2023-03-21T12:03:47.649Z,12.8
2023-03-21T12:05:41.716Z,12.8
2023-03-21T12:07:43.769Z,13.4
2023-03-21T12:11:47.896Z,13.3
2023-03-21T12:13:49.963Z,13
2023-03-21T12:15:54.977Z,13
2023-03-21T12:17:57.226Z,13.1
2023-03-21T12:19:59.283Z,13
2023-03-21T12:22:01.341Z,12.9
2023-03-21T12:24:03.450Z,12.9
2023-03-21T12:26:05.478Z,12.8
2023-03-21T12:28:07.537Z,12.9
2023-03-21T12:30:09.620Z,13
2023-03-21T12:32:14.668Z,12.9
2023-03-21T12:34:16.738Z,13
2023-03-21T12:36:18.885Z,12.9
2023-03-21T12:38:20.884Z,12.9
2023-03-21T12:40:22.926Z,12.9
2023-03-21T12:42:25.015Z,12.8
2023-03-21T12:44:27.063Z,12.9
2023-03-21T12:46:32.325Z,13.1
2023-03-21T12:48:34.363Z,13
2023-03-21T12:50:36.423Z,13.2
2023-03-21T12:51:39.028Z,13.3
2023-03-21T12:53:41.073Z,13.2
2023-03-21T12:55:43.140Z,13.1
2023-03-21T12:57:56.500Z,13.1
2023-03-21T12:59:50.444Z,13.5
2023-03-21T13:01:52.524Z,13.6
2023-03-21T13:12:03.088Z,13.1
2023-03-21T13:18:12.236Z,13.2
2023-03-21T13:20:14.286Z,13.2
2023-03-21T13:22:16.385Z,13.2
2023-03-21T13:24:18.438Z,13.1
2023-03-21T13:28:25.731Z,13.2
2023-03-21T13:30:27.926Z,13.2
2023-03-21T13:32:29.960Z,13.3
2023-03-21T13:34:31.985Z,13.5
2023-03-21T13:36:34.078Z,13.6
2023-03-21T13:38:36.163Z,13.6
2023-03-21T13:40:38.545Z,13.5
2023-03-21T13:42:43.440Z,13.5
2023-03-21T13:44:45.520Z,13.5
2023-03-21T13:46:54.119Z,13.6
2023-03-21T13:51:54.353Z,14.1
2023-03-21T13:53:56.401Z,14.7
2023-03-21T13:56:01.648Z,14.8
2023-03-21T14:00:05.815Z,15.1
2023-03-21T14:02:08.388Z,15.1
2023-03-21T14:06:12.098Z,14.3
2023-03-21T14:08:21.618Z,14.3
2023-03-21T14:10:19.352Z,14.2
2023-03-21T14:12:21.432Z,14.2
2023-03-21T14:14:23.535Z,13.9
2023-03-21T14:16:25.634Z,14.2
2023-03-21T14:22:31.837Z,15.5
2023-03-21T14:28:41.243Z,17.5
2023-03-21T14:30:43.421Z,17.1
2023-03-21T14:32:45.414Z,16.8
2023-03-21T14:34:47.510Z,16.4
2023-03-21T14:38:54.807Z,15.1
2023-03-21T14:40:56.916Z,14.8
2023-03-21T14:42:59.014Z,14.7
2023-03-21T14:45:27.574Z,14.5
2023-03-21T14:49:31.757Z,14.9
2023-03-21T14:51:37.008Z,16.1
2023-03-21T14:55:41.159Z,15.8
2023-03-21T14:57:43.278Z,15.3
2023-03-21T14:59:45.354Z,15.4
2023-03-21T15:01:47.500Z,15.3
2023-03-21T15:05:56.335Z,14.5
2023-03-21T15:07:58.447Z,14.4
2023-03-21T15:10:00.533Z,14.5
2023-03-21T15:12:02.621Z,14.6
2023-03-21T15:14:04.683Z,14.5
2023-03-21T15:16:06.811Z,14.4
2023-03-21T15:18:08.864Z,14.3
2023-03-21T15:20:14.098Z,14.1
2023-03-21T15:22:16.191Z,14.1
2023-03-21T15:24:18.275Z,14.1
2023-03-21T15:28:22.448Z,13.8
2023-03-21T15:30:24.524Z,13.8
2023-03-21T15:34:31.837Z,13.6
2023-03-21T15:39:38.936Z,13.6
2023-03-21T15:43:43.084Z,13.6
2023-03-21T15:45:45.148Z,13.6
2023-03-21T15:47:50.422Z,13.3
2023-03-21T15:49:52.448Z,13.3
2023-03-21T15:51:54.533Z,13.3
2023-03-21T15:53:56.633Z,13.4
2023-03-21T15:55:58.699Z,13.4
2023-03-21T15:58:00.763Z,13.4
2023-03-21T16:00:02.847Z,13.5
2023-03-21T16:02:08.193Z,13.5
2023-03-21T16:04:10.137Z,13.4
2023-03-21T16:06:12.239Z,13.5
2023-03-21T16:08:14.290Z,13.5
2023-03-21T16:10:16.367Z,13.5
2023-03-21T16:12:19.023Z,13.5
2023-03-21T16:14:20.538Z,13.5
2023-03-21T16:16:25.775Z,13.6
2023-03-21T16:18:27.824Z,13.5
2023-03-21T16:20:29.892Z,13.6
2023-03-21T16:22:31.990Z,13.6
2023-03-21T16:24:34.055Z,13.6
2023-03-21T16:26:36.153Z,13.5
2023-03-21T16:28:38.212Z,13.4
2023-03-21T16:30:43.440Z,13.3
2023-03-21T16:32:45.510Z,13.4
2023-03-21T16:34:47.564Z,13.3
2023-03-21T16:35:50.269Z,13.4
2023-03-21T16:37:52.281Z,13.4
2023-03-21T16:39:54.360Z,13.4
2023-03-21T16:41:56.407Z,13.3
2023-03-21T16:44:01.617Z,13.3
2023-03-21T16:46:03.842Z,13.3
2023-03-21T16:48:05.862Z,13.3
2023-03-21T16:50:07.840Z,13.2
2023-03-21T16:52:09.906Z,13.1
2023-03-21T16:54:11.979Z,13.1
2023-03-21T16:56:14.036Z,13
2023-03-21T16:58:19.249Z,13
2023-03-21T17:00:21.297Z,13.1
2023-03-21T17:02:23.372Z,13
2023-03-21T17:04:25.438Z,13
2023-03-21T17:06:27.521Z,12.9
2023-03-21T17:08:29.573Z,12.8
2023-03-21T17:10:31.678Z,12.8
2023-03-21T17:12:36.860Z,12.7
2023-03-21T17:14:38.910Z,12.6
2023-03-21T17:16:41.012Z,12.6
2023-03-21T17:18:43.095Z,12.5
2023-03-21T17:20:45.116Z,12.5
2023-03-21T17:22:47.332Z,12.4
2023-03-21T17:24:49.267Z,12.3
2023-03-21T17:26:54.475Z,12
2023-03-21T17:28:56.530Z,12.1
2023-03-21T17:30:58.606Z,12
2023-03-21T17:32:01.215Z,11.9
2023-03-21T17:34:04.446Z,11.9
2023-03-21T17:36:05.312Z,11.8
2023-03-21T17:38:07.439Z,11.7
2023-03-21T17:40:12.558Z,11.7
2023-03-21T17:42:14.640Z,11.6
2023-03-21T17:44:16.829Z,11.6
2023-03-21T17:46:18.912Z,11.7
2023-03-21T17:48:20.950Z,11.7
2023-03-21T17:50:22.975Z,11.6
2023-03-21T17:52:25.057Z,11.6
2023-03-21T17:54:30.322Z,11.5
2023-03-21T17:56:32.482Z,11.5
2023-03-21T17:58:34.632Z,11.5
2023-03-21T18:00:36.909Z,11.5
2023-03-21T18:02:38.732Z,11.5
2023-03-21T18:04:40.860Z,11.5
2023-03-21T18:06:42.936Z,11.4
2023-03-21T18:08:48.159Z,11.3
2023-03-21T18:10:50.291Z,11.4
2023-03-21T18:12:52.481Z,11.3
2023-03-21T18:14:54.598Z,11.3
2023-03-21T18:16:56.757Z,11.2
2023-03-21T18:21:01.313Z,11.2
2023-03-21T18:23:06.224Z,11.2
2023-03-21T18:25:08.307Z,11.2
2023-03-21T18:27:11.038Z,11.2
2023-03-21T18:30:25.710Z,11.1
2023-03-21T18:33:43.281Z,11.1
2023-03-21T18:56:46.605Z,10.8
2023-03-21T18:58:15.112Z,10.8
2023-03-21T19:02:19.307Z,10.8
2023-03-21T19:06:26.828Z,10.8
2023-03-21T19:08:28.966Z,10.7
2023-03-21T19:10:31.061Z,10.8
2023-03-21T19:12:33.088Z,10.8
2023-03-21T19:14:35.253Z,10.8
2023-03-21T19:16:56.498Z,10.7
2023-03-21T19:18:54.373Z,10.7
2023-03-21T19:20:44.857Z,10.7
2023-03-21T19:22:46.938Z,10.7
2023-03-21T19:24:22.864Z,10.7
2023-03-21T19:27:53.746Z,10.7
2023-03-21T19:30:10.665Z,10.7
2023-03-21T19:51:20.189Z,10.6
2023-03-21T20:06:43.505Z,10.6
2023-03-21T20:10:47.676Z,10.6
2023-03-21T20:12:49.712Z,10.6
2023-03-21T20:16:57.332Z,10.6
2023-03-21T20:20:02.081Z,10.6
2023-03-21T20:22:07.732Z,10.6
2023-03-21T20:24:06.219Z,10.6
2023-03-21T20:26:08.376Z,10.5
2023-03-21T20:28:17.321Z,10.6
2023-03-21T20:30:15.926Z,10.7
2023-03-21T20:36:39.288Z,10.7
2023-03-21T20:38:24.448Z,10.6
2023-03-21T20:40:26.624Z,10.8
2023-03-21T20:42:32.716Z,10.7
2023-03-21T20:44:56.045Z,10.7
2023-03-21T20:46:37.689Z,10.8
2023-03-21T20:48:38.235Z,10.7
2023-03-21T20:50:40.370Z,10.7
2023-03-21T20:53:06.286Z,10.7
2023-03-21T20:54:44.344Z,10.7
2023-03-21T20:56:51.295Z,10.8
2023-03-21T20:59:07.931Z,10.8
2023-03-21T21:00:55.442Z,10.8
2023-03-21T21:05:24.564Z,10.8
2023-03-21T21:07:01.852Z,10.9
2023-03-21T21:09:03.889Z,10.9
2023-03-21T21:11:56.929Z,10.8
2023-03-21T21:13:11.292Z,10.9
2023-03-21T21:15:13.424Z,10.9
2023-03-21T21:16:16.184Z,10.9
2023-03-21T21:18:18.471Z,10.9
2023-03-21T21:22:22.428Z,10.9
2023-03-21T21:24:27.790Z,10.8
2023-03-21T21:30:34.118Z,10.9
2023-03-21T21:32:36.226Z,10.8
2023-03-21T21:38:45.464Z,10.7
2023-03-21T21:44:51.845Z,10.6
2023-03-21T21:46:53.976Z,10.6
2023-03-21T21:48:56.005Z,10.5
2023-03-21T21:50:58.132Z,10.5
2023-03-21T21:53:03.537Z,10.5
2023-03-21T21:55:05.660Z,10.5
2023-03-21T22:01:11.850Z,10.5
2023-03-21T22:03:13.917Z,10.4
2023-03-21T22:05:16.018Z,10.4
2023-03-21T22:07:21.399Z,10.4
2023-03-21T22:09:23.536Z,10.3
2023-03-21T22:11:25.657Z,10.3
2023-03-21T22:15:56.628Z,10.3
2023-03-21T22:17:58.672Z,10.3
2023-03-21T22:20:06.540Z,10.4
2023-03-21T22:22:05.928Z,10.4
2023-03-21T22:24:08.053Z,10.4
2023-03-21T22:26:10.125Z,10.4
2023-03-21T22:28:12.234Z,10.4
2023-03-21T22:30:14.376Z,10.4
2023-03-21T22:32:16.502Z,10.4
2023-03-21T22:34:21.851Z,10.4
2023-03-21T22:36:23.978Z,10.4
2023-03-21T22:38:26.114Z,10.5
2023-03-21T22:40:28.278Z,10.4
2023-03-21T22:42:30.379Z,10.4
2023-03-21T22:44:32.500Z,10.4
2023-03-21T22:46:34.646Z,10.4
2023-03-21T22:50:42.213Z,10.3
2023-03-21T22:52:44.274Z,10.2
2023-03-21T22:54:46.531Z,10.2
2023-03-21T22:56:48.516Z,10.2
2023-03-21T22:58:50.576Z,10.2
2023-03-21T23:00:52.683Z,10.2
2023-03-21T23:02:57.944Z,10.2
2023-03-21T23:08:04.889Z,10.1
2023-03-21T23:10:06.987Z,10.2
2023-03-21T23:12:09.155Z,10.2
2023-03-21T23:14:11.272Z,10.3
2023-03-21T23:16:16.699Z,10.2
2023-03-21T23:18:18.754Z,10.2
2023-03-21T23:20:20.905Z,10.1
2023-03-21T23:22:22.994Z,10
2023-03-21T23:24:25.115Z,10
2023-03-21T23:28:29.418Z,10
2023-03-21T23:32:36.828Z,10
2023-03-21T23:38:43.099Z,10.1
2023-03-21T23:40:45.240Z,10.1
2023-03-21T23:42:47.352Z,10.1
2023-03-21T23:44:52.608Z,10
2023-03-21T23:46:54.713Z,10
2023-03-21T23:48:56.733Z,10
2023-03-21T23:55:03.097Z,10
2023-03-21T23:57:05.092Z,10.1
